﻿<?xml version="1.0" encoding="utf-8"?><gpx creator="Garmin Desktop App" version="1.1" xsi:schemaLocation="http://www.topografix.com/GPX/1/1 http://www.topografix.com/GPX/1/1/gpx.xsd http://www.garmin.com/xmlschemas/WaypointExtension/v1 http://www8.garmin.com/xmlschemas/WaypointExtensionv1.xsd http://www.garmin.com/xmlschemas/TrackPointExtension/v1 http://www.garmin.com/xmlschemas/TrackPointExtensionv1.xsd http://www.garmin.com/xmlschemas/GpxExtensions/v3 http://www8.garmin.com/xmlschemas/GpxExtensionsv3.xsd http://www.garmin.com/xmlschemas/ActivityExtension/v1 http://www8.garmin.com/xmlschemas/ActivityExtensionv1.xsd http://www.garmin.com/xmlschemas/AdventuresExtensions/v1 http://www8.garmin.com/xmlschemas/AdventuresExtensionv1.xsd http://www.garmin.com/xmlschemas/PressureExtension/v1 http://www.garmin.com/xmlschemas/PressureExtensionv1.xsd http://www.garmin.com/xmlschemas/TripExtensions/v1 http://www.garmin.com/xmlschemas/TripExtensionsv1.xsd http://www.garmin.com/xmlschemas/TripMetaDataExtensions/v1 http://www.garmin.com/xmlschemas/TripMetaDataExtensionsv1.xsd http://www.garmin.com/xmlschemas/ViaPointTransportationModeExtensions/v1 http://www.garmin.com/xmlschemas/ViaPointTransportationModeExtensionsv1.xsd http://www.garmin.com/xmlschemas/CreationTimeExtension/v1 http://www.garmin.com/xmlschemas/CreationTimeExtensionsv1.xsd http://www.garmin.com/xmlschemas/AccelerationExtension/v1 http://www.garmin.com/xmlschemas/AccelerationExtensionv1.xsd http://www.garmin.com/xmlschemas/PowerExtension/v1 http://www.garmin.com/xmlschemas/PowerExtensionv1.xsd http://www.garmin.com/xmlschemas/VideoExtension/v1 http://www.garmin.com/xmlschemas/VideoExtensionv1.xsd" xmlns="http://www.topografix.com/GPX/1/1" xmlns:xsi="http://www.w3.org/2001/XMLSchema-instance" xmlns:wptx1="http://www.garmin.com/xmlschemas/WaypointExtension/v1" xmlns:gpxtrx="http://www.garmin.com/xmlschemas/GpxExtensions/v3" xmlns:gpxtpx="http://www.garmin.com/xmlschemas/TrackPointExtension/v1" xmlns:gpxx="http://www.garmin.com/xmlschemas/GpxExtensions/v3" xmlns:trp="http://www.garmin.com/xmlschemas/TripExtensions/v1" xmlns:adv="http://www.garmin.com/xmlschemas/AdventuresExtensions/v1" xmlns:prs="http://www.garmin.com/xmlschemas/PressureExtension/v1" xmlns:tmd="http://www.garmin.com/xmlschemas/TripMetaDataExtensions/v1" xmlns:vptm="http://www.garmin.com/xmlschemas/ViaPointTransportationModeExtensions/v1" xmlns:ctx="http://www.garmin.com/xmlschemas/CreationTimeExtension/v1" xmlns:gpxacc="http://www.garmin.com/xmlschemas/AccelerationExtension/v1" xmlns:gpxpx="http://www.garmin.com/xmlschemas/PowerExtension/v1" xmlns:vidx1="http://www.garmin.com/xmlschemas/VideoExtension/v1">

  <metadata>
    <link href="http://www.garmin.com">
      <text>Garmin International</text>
    </link>
    <time>2024-09-29T17:39:25Z</time>
    <bounds maxlat="45.633085314184427" maxlon="7.979678520932794" minlat="45.629533231258392" minlon="7.956945709884167" />
  </metadata>

  <trk>
    <name>ferrata niti staich2024-09-29</name>
    <extensions>
      <gpxx:TrackExtension>
        <gpxx:DisplayColor>Yellow</gpxx:DisplayColor>
      </gpxx:TrackExtension>
      <gpxtrkx:TrackStatsExtension xmlns:gpxtrkx="http://www.garmin.com/xmlschemas/TrackStatsExtension/v1">
        <gpxtrkx:Distance>7351</gpxtrkx:Distance>
        <gpxtrkx:TotalElapsedTime>22543</gpxtrkx:TotalElapsedTime>
        <gpxtrkx:MovingTime>11002</gpxtrkx:MovingTime>
        <gpxtrkx:StoppedTime>11096</gpxtrkx:StoppedTime>
        <gpxtrkx:MovingSpeed>0.668</gpxtrkx:MovingSpeed>
        <gpxtrkx:MaxSpeed>2.635</gpxtrkx:MaxSpeed>
        <gpxtrkx:MaxElevation>1640.688</gpxtrkx:MaxElevation>
        <gpxtrkx:MinElevation>1193.595</gpxtrkx:MinElevation>
        <gpxtrkx:Ascent>463</gpxtrkx:Ascent>
        <gpxtrkx:Descent>420.901</gpxtrkx:Descent>
        <gpxtrkx:AvgAscentRate>0.031</gpxtrkx:AvgAscentRate>
        <gpxtrkx:MaxAscentRate>0.258</gpxtrkx:MaxAscentRate>
        <gpxtrkx:AvgDescentRate>0.068</gpxtrkx:AvgDescentRate>
        <gpxtrkx:MaxDescentRate>-0.393</gpxtrkx:MaxDescentRate>
      </gpxtrkx:TrackStatsExtension>
    </extensions>
    <trkseg>
      <trkpt lat="45.629533231258392" lon="7.978085875511169">
        <ele>1212.73</ele>
        <time>2024-09-29T06:46:48Z</time>
      </trkpt>
      <trkpt lat="45.62989273108542" lon="7.977743726223707">
        <ele>1213.8900000000001</ele>
        <time>2024-09-29T06:48:15Z</time>
      </trkpt>
      <trkpt lat="45.63043805770576" lon="7.977541722357273">
        <ele>1217.4000000000001</ele>
        <time>2024-09-29T06:49:08Z</time>
      </trkpt>
      <trkpt lat="45.630685659125447" lon="7.977184485644102">
        <ele>1219.8499999999999</ele>
        <time>2024-09-29T06:50:37Z</time>
      </trkpt>
      <trkpt lat="45.63064525835216" lon="7.976880809292197">
        <ele>1220.95</ele>
        <time>2024-09-29T06:52:06Z</time>
      </trkpt>
      <trkpt lat="45.630518104881048" lon="7.976245628669858">
        <ele>1223.75</ele>
        <time>2024-09-29T06:53:22Z</time>
      </trkpt>
      <trkpt lat="45.630545262247324" lon="7.9754956997931">
        <ele>1231.8099999999999</ele>
        <time>2024-09-29T06:54:35Z</time>
      </trkpt>
      <trkpt lat="45.630698734894395" lon="7.974774604663253">
        <ele>1242.6900000000001</ele>
        <time>2024-09-29T06:56:05Z</time>
      </trkpt>
      <trkpt lat="45.630848854780197" lon="7.97411628998816">
        <ele>1248.1300000000001</ele>
        <time>2024-09-29T06:57:09Z</time>
      </trkpt>
      <trkpt lat="45.630706027150154" lon="7.97360910102725">
        <ele>1248.76</ele>
        <time>2024-09-29T06:58:24Z</time>
      </trkpt>
      <trkpt lat="45.630374690517783" lon="7.972990684211254">
        <ele>1245.9400000000001</ele>
        <time>2024-09-29T06:59:33Z</time>
      </trkpt>
      <trkpt lat="45.630491282790899" lon="7.97217789106071">
        <ele>1248.72</ele>
        <time>2024-09-29T07:00:36Z</time>
      </trkpt>
      <trkpt lat="45.630638636648655" lon="7.971452185884118">
        <ele>1251.1099999999999</ele>
        <time>2024-09-29T07:01:38Z</time>
      </trkpt>
      <trkpt lat="45.630409475415945" lon="7.970810802653432">
        <ele>1261.95</ele>
        <time>2024-09-29T07:02:58Z</time>
      </trkpt>
      <trkpt lat="45.630196323618293" lon="7.970123989507556">
        <ele>1270.9000000000001</ele>
        <time>2024-09-29T07:04:18Z</time>
      </trkpt>
      <trkpt lat="45.630261786282063" lon="7.969385795295239">
        <ele>1276.1300000000001</ele>
        <time>2024-09-29T07:05:19Z</time>
      </trkpt>
      <trkpt lat="45.630428921431303" lon="7.968730246648192">
        <ele>1286.3399999999999</ele>
        <time>2024-09-29T07:06:36Z</time>
      </trkpt>
      <trkpt lat="45.630474099889398" lon="7.967969672754407">
        <ele>1297.3699999999999</ele>
        <time>2024-09-29T07:07:59Z</time>
      </trkpt>
      <trkpt lat="45.630654981359839" lon="7.967357961460948">
        <ele>1312.1800000000001</ele>
        <time>2024-09-29T07:09:31Z</time>
      </trkpt>
      <trkpt lat="45.630629835650325" lon="7.967215972021222">
        <ele>1314.1500000000001</ele>
        <time>2024-09-29T07:12:29Z</time>
      </trkpt>
      <trkpt lat="45.630659675225616" lon="7.966549945995212">
        <ele>1324.1099999999999</ele>
        <time>2024-09-29T07:14:27Z</time>
      </trkpt>
      <trkpt lat="45.630451552569866" lon="7.965917866677046">
        <ele>1328.3499999999999</ele>
        <time>2024-09-29T07:16:02Z</time>
      </trkpt>
      <trkpt lat="45.630392460152507" lon="7.965232059359551">
        <ele>1339.04</ele>
        <time>2024-09-29T07:17:37Z</time>
      </trkpt>
      <trkpt lat="45.630293972790241" lon="7.96444583684206">
        <ele>1346.75</ele>
        <time>2024-09-29T07:19:07Z</time>
      </trkpt>
      <trkpt lat="45.630063721910119" lon="7.963884333148599">
        <ele>1358.8499999999999</ele>
        <time>2024-09-29T07:20:38Z</time>
      </trkpt>
      <trkpt lat="45.629860293120146" lon="7.963274465873838">
        <ele>1364.23</ele>
        <time>2024-09-29T07:22:00Z</time>
      </trkpt>
      <trkpt lat="45.629713777452707" lon="7.962805330753326">
        <ele>1380.3599999999999</ele>
        <time>2024-09-29T07:23:38Z</time>
      </trkpt>
      <trkpt lat="45.629984177649021" lon="7.962228823453188">
        <ele>1386.3399999999999</ele>
        <time>2024-09-29T07:24:38Z</time>
      </trkpt>
      <trkpt lat="45.62999876216054" lon="7.961812578141689">
        <ele>1390.3499999999999</ele>
        <time>2024-09-29T07:34:29Z</time>
      </trkpt>
      <trkpt lat="45.629970347508788" lon="7.961878208443523">
        <ele>1390.26</ele>
        <time>2024-09-29T07:38:11Z</time>
      </trkpt>
      <trkpt lat="45.630001109093428" lon="7.961823809891939">
        <ele>1391.8299999999999</ele>
        <time>2024-09-29T07:46:35Z</time>
      </trkpt>
      <trkpt lat="45.630383156239986" lon="7.961984071880579">
        <ele>1410.0699999999999</ele>
        <time>2024-09-29T07:49:04Z</time>
      </trkpt>
      <trkpt lat="45.630738297477365" lon="7.96188541688025">
        <ele>1435.77</ele>
        <time>2024-09-29T07:53:12Z</time>
      </trkpt>
      <trkpt lat="45.630915993824601" lon="7.961847865954042">
        <ele>1448.8699999999999</ele>
        <time>2024-09-29T07:56:06Z</time>
      </trkpt>
      <trkpt lat="45.630961172282696" lon="7.961846357211471">
        <ele>1454.8199999999999</ele>
        <time>2024-09-29T08:01:35Z</time>
      </trkpt>
      <trkpt lat="45.630972655490041" lon="7.961844932287931">
        <ele>1468.47</ele>
        <time>2024-09-29T08:08:42Z</time>
      </trkpt>
      <trkpt lat="45.631118416786194" lon="7.961897905915976">
        <ele>1486.74</ele>
        <time>2024-09-29T08:18:09Z</time>
      </trkpt>
      <trkpt lat="45.631170552223921" lon="7.961741499602795">
        <ele>1498.1600000000001</ele>
        <time>2024-09-29T08:23:13Z</time>
      </trkpt>
      <trkpt lat="45.631356127560139" lon="7.961835293099284">
        <ele>1511.6199999999999</ele>
        <time>2024-09-29T08:30:24Z</time>
      </trkpt>
      <trkpt lat="45.631273901090026" lon="7.96190544962883">
        <ele>1522.7</ele>
        <time>2024-09-29T08:37:13Z</time>
      </trkpt>
      <trkpt lat="45.631518820300698" lon="7.961819535121322">
        <ele>1536.78</ele>
        <time>2024-09-29T08:43:10Z</time>
      </trkpt>
      <trkpt lat="45.631539607420564" lon="7.961756587028503">
        <ele>1540.6800000000001</ele>
        <time>2024-09-29T08:46:22Z</time>
      </trkpt>
      <trkpt lat="45.631686206907034" lon="7.961694477126002">
        <ele>1541.46</ele>
        <time>2024-09-29T08:51:22Z</time>
      </trkpt>
      <trkpt lat="45.631727110594511" lon="7.961714090779424">
        <ele>1545.1199999999999</ele>
        <time>2024-09-29T08:53:04Z</time>
      </trkpt>
      <trkpt lat="45.631518317386508" lon="7.961694728583098">
        <ele>1550.6400000000001</ele>
        <time>2024-09-29T08:56:53Z</time>
      </trkpt>
      <trkpt lat="45.631731636822224" lon="7.961709564551711">
        <ele>1561.22</ele>
        <time>2024-09-29T09:03:16Z</time>
      </trkpt>
      <trkpt lat="45.632058195769787" lon="7.961578471586108">
        <ele>1571.97</ele>
        <time>2024-09-29T09:05:17Z</time>
      </trkpt>
      <trkpt lat="45.632122401148081" lon="7.961518540978432">
        <ele>1590.76</ele>
        <time>2024-09-29T09:16:43Z</time>
      </trkpt>
      <trkpt lat="45.632187696173787" lon="7.961471853777766">
        <ele>1598.3699999999999</ele>
        <time>2024-09-29T09:21:40Z</time>
      </trkpt>
      <trkpt lat="45.632180906832218" lon="7.961481073871255">
        <ele>1602.99</ele>
        <time>2024-09-29T09:26:20Z</time>
      </trkpt>
      <trkpt lat="45.632170513272285" lon="7.961511164903641">
        <ele>1603.1300000000001</ele>
        <time>2024-09-29T09:30:38Z</time>
      </trkpt>
      <trkpt lat="45.632098764181137" lon="7.961491970345378">
        <ele>1611.49</ele>
        <time>2024-09-29T09:32:57Z</time>
      </trkpt>
      <trkpt lat="45.632097087800503" lon="7.961327852681279">
        <ele>1613.54</ele>
        <time>2024-09-29T09:37:02Z</time>
      </trkpt>
      <trkpt lat="45.632166741415858" lon="7.961292564868927">
        <ele>1626.6300000000001</ele>
        <time>2024-09-29T09:43:00Z</time>
      </trkpt>
      <trkpt lat="45.632170177996159" lon="7.961291894316673">
        <ele>1626.1700000000001</ele>
        <time>2024-09-29T09:48:13Z</time>
      </trkpt>
      <trkpt lat="45.632172022014856" lon="7.961032306775451">
        <ele>1636.4400000000001</ele>
        <time>2024-09-29T10:53:51Z</time>
      </trkpt>
      <trkpt lat="45.632396405562758" lon="7.960584294050932">
        <ele>1622.5799999999999</ele>
        <time>2024-09-29T10:55:08Z</time>
      </trkpt>
      <trkpt lat="45.632278639823198" lon="7.960229907184839">
        <ele>1604.04</ele>
        <time>2024-09-29T10:56:59Z</time>
      </trkpt>
      <trkpt lat="45.632331361994147" lon="7.959836795926094">
        <ele>1586.3499999999999</ele>
        <time>2024-09-29T10:59:39Z</time>
      </trkpt>
      <trkpt lat="45.632478967308998" lon="7.959313094615936">
        <ele>1576.3099999999999</ele>
        <time>2024-09-29T11:01:11Z</time>
      </trkpt>
      <trkpt lat="45.632849195972085" lon="7.95903230085969">
        <ele>1579.02</ele>
        <time>2024-09-29T11:02:43Z</time>
      </trkpt>
      <trkpt lat="45.633085314184427" lon="7.958610774949193">
        <ele>1565.4200000000001</ele>
        <time>2024-09-29T11:04:22Z</time>
      </trkpt>
      <trkpt lat="45.63212675973773" lon="7.957786498591304">
        <ele>1502.8499999999999</ele>
        <time>2024-09-29T11:13:03Z</time>
      </trkpt>
      <trkpt lat="45.631762146949768" lon="7.95782832428813">
        <ele>1479.5799999999999</ele>
        <time>2024-09-29T11:14:37Z</time>
      </trkpt>
      <trkpt lat="45.631526950746775" lon="7.957618525251746">
        <ele>1459.46</ele>
        <time>2024-09-29T11:15:50Z</time>
      </trkpt>
      <trkpt lat="45.631279014050961" lon="7.957353573292494">
        <ele>1444.9400000000001</ele>
        <time>2024-09-29T11:17:26Z</time>
      </trkpt>
      <trkpt lat="45.631071561947465" lon="7.956945709884167">
        <ele>1443.97</ele>
        <time>2024-09-29T11:19:20Z</time>
      </trkpt>
      <trkpt lat="45.63078255392611" lon="7.957084430381656">
        <ele>1438.4200000000001</ele>
        <time>2024-09-29T11:25:01Z</time>
      </trkpt>
      <trkpt lat="45.630662189796567" lon="7.957632606849074">
        <ele>1432.3</ele>
        <time>2024-09-29T11:26:22Z</time>
      </trkpt>
      <trkpt lat="45.630560517311096" lon="7.95825881883502">
        <ele>1422.54</ele>
        <time>2024-09-29T11:27:17Z</time>
      </trkpt>
      <trkpt lat="45.630328757688403" lon="7.958802049979568">
        <ele>1413.5599999999999</ele>
        <time>2024-09-29T11:28:03Z</time>
      </trkpt>
      <trkpt lat="45.630103452131152" lon="7.9593650624156">
        <ele>1406.1500000000001</ele>
        <time>2024-09-29T11:28:50Z</time>
      </trkpt>
      <trkpt lat="45.629913350567222" lon="7.959945676848292">
        <ele>1398.55</ele>
        <time>2024-09-29T11:29:36Z</time>
      </trkpt>
      <trkpt lat="45.629891892895103" lon="7.960592340677977">
        <ele>1394.22</ele>
        <time>2024-09-29T11:30:21Z</time>
      </trkpt>
      <trkpt lat="45.629947297275066" lon="7.961231544613838">
        <ele>1392.53</ele>
        <time>2024-09-29T11:31:07Z</time>
      </trkpt>
      <trkpt lat="45.630000857636333" lon="7.961873514577746">
        <ele>1390.3299999999999</ele>
        <time>2024-09-29T11:31:50Z</time>
      </trkpt>
      <trkpt lat="45.629798602312803" lon="7.962476424872875">
        <ele>1385.5899999999999</ele>
        <time>2024-09-29T11:32:35Z</time>
      </trkpt>
      <trkpt lat="45.630188025534153" lon="7.962487153708935">
        <ele>1382.4300000000001</ele>
        <time>2024-09-29T11:33:19Z</time>
      </trkpt>
      <trkpt lat="45.630411822348833" lon="7.963064331561327">
        <ele>1378.3800000000001</ele>
        <time>2024-09-29T11:34:03Z</time>
      </trkpt>
      <trkpt lat="45.630566217005253" lon="7.963685933500528">
        <ele>1374.1600000000001</ele>
        <time>2024-09-29T11:34:45Z</time>
      </trkpt>
      <trkpt lat="45.63076981343329" lon="7.964268140494824">
        <ele>1369.6199999999999</ele>
        <time>2024-09-29T11:36:32Z</time>
      </trkpt>
      <trkpt lat="45.63093108125031" lon="7.964984960854054">
        <ele>1365.4400000000001</ele>
        <time>2024-09-29T11:37:39Z</time>
      </trkpt>
      <trkpt lat="45.631146328523755" lon="7.965674037113786">
        <ele>1359.97</ele>
        <time>2024-09-29T11:38:28Z</time>
      </trkpt>
      <trkpt lat="45.631258981302381" lon="7.966447770595551">
        <ele>1354.1400000000001</ele>
        <time>2024-09-29T11:39:20Z</time>
      </trkpt>
      <trkpt lat="45.631427625194192" lon="7.967080688104034">
        <ele>1348.53</ele>
        <time>2024-09-29T11:40:06Z</time>
      </trkpt>
      <trkpt lat="45.631718225777149" lon="7.96804117038846">
        <ele>1337.5599999999999</ele>
        <time>2024-09-29T11:41:21Z</time>
      </trkpt>
      <trkpt lat="45.631899191066623" lon="7.969038281589747">
        <ele>1327.22</ele>
        <time>2024-09-29T11:42:27Z</time>
      </trkpt>
      <trkpt lat="45.631773546338081" lon="7.969885608181357">
        <ele>1318.75</ele>
        <time>2024-09-29T11:43:21Z</time>
      </trkpt>
      <trkpt lat="45.631699785590172" lon="7.970529338344932">
        <ele>1313.75</ele>
        <time>2024-09-29T11:44:12Z</time>
      </trkpt>
      <trkpt lat="45.631762482225895" lon="7.971191257238388">
        <ele>1311.0899999999999</ele>
        <time>2024-09-29T11:45:47Z</time>
      </trkpt>
      <trkpt lat="45.631883013993502" lon="7.971896594390273">
        <ele>1305.8900000000001</ele>
        <time>2024-09-29T11:46:39Z</time>
      </trkpt>
      <trkpt lat="45.631911931559443" lon="7.972533702850342">
        <ele>1304.0599999999999</ele>
        <time>2024-09-29T11:47:33Z</time>
      </trkpt>
      <trkpt lat="45.631682686507702" lon="7.973122363910079">
        <ele>1296.4400000000001</ele>
        <time>2024-09-29T11:48:27Z</time>
      </trkpt>
      <trkpt lat="45.631480347365141" lon="7.973812445998192">
        <ele>1287.21</ele>
        <time>2024-09-29T11:49:24Z</time>
      </trkpt>
      <trkpt lat="45.631369119510055" lon="7.974544102326036">
        <ele>1277.49</ele>
        <time>2024-09-29T11:50:17Z</time>
      </trkpt>
      <trkpt lat="45.631420752033591" lon="7.975349016487598">
        <ele>1266.5</ele>
        <time>2024-09-29T11:51:16Z</time>
      </trkpt>
      <trkpt lat="45.631418824195862" lon="7.976182177662849">
        <ele>1256.76</ele>
        <time>2024-09-29T11:52:19Z</time>
      </trkpt>
      <trkpt lat="45.631600962951779" lon="7.976649552583695">
        <ele>1251.5</ele>
        <time>2024-09-29T11:53:12Z</time>
      </trkpt>
      <trkpt lat="45.632044868543744" lon="7.9763263463974">
        <ele>1247.55</ele>
        <time>2024-09-29T11:54:09Z</time>
      </trkpt>
      <trkpt lat="45.632426245138049" lon="7.976772347465158">
        <ele>1241.6600000000001</ele>
        <time>2024-09-29T11:55:04Z</time>
      </trkpt>
      <trkpt lat="45.632023327052593" lon="7.97688634134829">
        <ele>1234.6300000000001</ele>
        <time>2024-09-29T11:55:58Z</time>
      </trkpt>
      <trkpt lat="45.631725937128067" lon="7.977423872798681">
        <ele>1230.6199999999999</ele>
        <time>2024-09-29T11:56:44Z</time>
      </trkpt>
      <trkpt lat="45.631651673465967" lon="7.978184530511499">
        <ele>1226.3499999999999</ele>
        <time>2024-09-29T11:57:35Z</time>
      </trkpt>
      <trkpt lat="45.631341123953462" lon="7.978480495512486">
        <ele>1222.5</ele>
        <time>2024-09-29T11:58:18Z</time>
      </trkpt>
      <trkpt lat="45.631186477839947" lon="7.978087887167931">
        <ele>1224.0699999999999</ele>
        <time>2024-09-29T12:03:15Z</time>
      </trkpt>
      <trkpt lat="45.63121740706265" lon="7.978126024827361">
        <ele>1227.4000000000001</ele>
        <time>2024-09-29T12:12:04Z</time>
      </trkpt>
      <trkpt lat="45.631229393184185" lon="7.978079337626696">
        <ele>1228.3199999999999</ele>
        <time>2024-09-29T12:30:54Z</time>
      </trkpt>
      <trkpt lat="45.631219502538443" lon="7.978063579648733">
        <ele>1227.4100000000001</ele>
        <time>2024-09-29T12:44:36Z</time>
      </trkpt>
      <trkpt lat="45.631268620491028" lon="7.978237587958574">
        <ele>1227.54</ele>
        <time>2024-09-29T12:54:50Z</time>
      </trkpt>
      <trkpt lat="45.631164014339447" lon="7.978861117735505">
        <ele>1224.28</ele>
        <time>2024-09-29T12:55:52Z</time>
      </trkpt>
      <trkpt lat="45.63110844232142" lon="7.979564694687724">
        <ele>1218.99</ele>
        <time>2024-09-29T12:56:44Z</time>
      </trkpt>
      <trkpt lat="45.630814153701067" lon="7.979678520932794">
        <ele>1212.47</ele>
        <time>2024-09-29T12:57:33Z</time>
      </trkpt>
      <trkpt lat="45.630716001614928" lon="7.979049542918801">
        <ele>1208.3800000000001</ele>
        <time>2024-09-29T12:58:17Z</time>
      </trkpt>
      <trkpt lat="45.630746176466346" lon="7.978369519114494">
        <ele>1206.21</ele>
        <time>2024-09-29T12:59:00Z</time>
      </trkpt>
      <trkpt lat="45.630601085722446" lon="7.977764261886478">
        <ele>1203.8699999999999</ele>
        <time>2024-09-29T12:59:42Z</time>
      </trkpt>
      <trkpt lat="45.630114348605275" lon="7.977587403729558">
        <ele>1202.01</ele>
        <time>2024-09-29T13:00:30Z</time>
      </trkpt>
      <trkpt lat="45.629585534334183" lon="7.977771051228046">
        <ele>1197.8399999999999</ele>
        <time>2024-09-29T13:01:15Z</time>
      </trkpt>
    </trkseg>
  </trk>

</gpx>